Time;durP1;ratioP1;P1;durP2;ratioP2;P2;SDS_P1;SDS_P2;PMS_P1;PMS_P2;Temp;Humidity;BMP_temperature;BMP_pressure;BME280_temperature;BME280_humidity;BME280_pressure;Samples;Min_cycle;Max_cycle;Signal;HPM_P1;HPM_P2
2021/04/15 00:01:07;;;;;;;4.40;4.10;;;;;;;6.29;100.00;98080.16;5074911;28;20707;-88
2021/04/15 00:03:34;;;;;;;4.40;4.00;;;;;;;6.08;100.00;98081.38;5075330;28;20278;-89
2021/04/15 00:06:05;;;;;;;4.80;4.27;;;;;;;5.89;100.00;98079.78;5075565;28;20228;-89
2021/04/15 00:08:32;;;;;;;4.63;4.30;;;;;;;6.16;100.00;98085.22;5075360;28;20267;-88
2021/04/15 00:11:01;;;;;;;3.93;3.63;;;;;;;6.11;100.00;98087.25;5074955;28;20430;-89
2021/04/15 00:13:31;;;;;;;4.13;3.83;;;;;;;6.16;100.00;98079.16;5074941;28;20691;-89
2021/04/15 00:15:59;;;;;;;4.83;4.30;;;;;;;6.05;100.00;98066.72;5075041;28;20193;-88
2021/04/15 00:18:26;;;;;;;5.20;4.47;;;;;;;6.11;100.00;98068.16;5073963;28;20261;-88
2021/04/15 00:20:54;;;;;;;4.83;4.30;;;;;;;6.20;100.00;98065.03;5074667;28;20603;-89
2021/04/15 00:23:21;;;;;;;5.20;4.70;;;;;;;6.34;100.00;98061.59;5074968;28;20229;-89
2021/04/15 00:25:49;;;;;;;6.63;4.73;;;;;;;6.34;100.00;98052.03;5074735;28;20258;-89
2021/04/15 00:28:16;;;;;;;5.10;4.57;;;;;;;6.16;100.00;98042.63;5074569;28;20223;-88
2021/04/15 00:30:44;;;;;;;4.70;4.30;;;;;;;6.02;100.00;98038.19;5074961;28;20578;-88
2021/04/15 00:33:11;;;;;;;4.73;4.33;;;;;;;6.06;100.00;98042.31;5074565;28;20677;-88
2021/04/15 00:35:39;;;;;;;4.43;4.13;;;;;;;6.04;100.00;98043.34;5074649;28;20189;-88
2021/04/15 00:38:07;;;;;;;4.50;4.10;;;;;;;5.97;100.00;98045.44;5074640;28;20632;-88
2021/04/15 00:40:36;;;;;;;4.93;4.60;;;;;;;5.88;100.00;98040.69;5074618;28;20193;-88
2021/04/15 00:43:04;;;;;;;4.97;4.57;;;;;;;5.87;100.00;98032.03;5074339;28;20194;-87
2021/04/15 00:45:33;;;;;;;4.17;3.87;;;;;;;5.86;100.00;98019.91;5074357;28;20265;-88
2021/04/15 00:48:06;;;;;;;4.90;4.60;;;;;;;5.84;100.00;98013.09;5074130;28;20221;-88
2021/04/15 00:50:36;;;;;;;4.30;4.00;;;;;;;5.74;100.00;97999.72;5074272;28;20189;-88
2021/04/15 00:53:06;;;;;;;4.40;4.00;;;;;;;5.61;100.00;97983.06;5074292;28;20280;-88
2021/04/15 00:55:34;;;;;;;10.27;5.87;;;;;;;5.66;100.00;97965.41;5074086;28;20203;-88
2021/04/15 00:58:04;;;;;;;8.90;5.87;;;;;;;5.79;100.00;97961.19;5074321;28;20645;-88
2021/04/15 01:00:32;;;;;;;4.63;4.23;;;;;;;5.81;100.00;97963.69;5057206;28;20201;-88
2021/04/15 01:03:02;;;;;;;4.20;3.80;;;;;;;5.90;100.00;97969.22;5054411;28;20225;-88
2021/04/15 01:05:32;;;;;;;4.60;4.20;;;;;;;5.80;100.00;97973.28;5053789;28;20483;-89
2021/04/15 01:07:59;;;;;;;5.47;4.97;;;;;;;5.90;100.00;97976.22;5054064;28;20586;-88
2021/04/15 01:10:28;;;;;;;4.53;4.17;;;;;;;5.67;100.00;97975.75;5053636;28;20209;-88
2021/04/15 01:13:27;;;;;;;4.20;3.90;;;;;;;5.42;100.00;97968.47;5053665;28;20244;-88
2021/04/15 01:16:03;;;;;;;4.27;3.97;;;;;;;5.51;100.00;97951.47;5053227;28;20731;-88
2021/04/15 01:18:36;;;;;;;4.73;4.30;;;;;;;5.69;100.00;97946.97;5053642;28;20181;-88
2021/04/15 01:21:30;;;;;;;4.37;4.07;;;;;;;5.73;100.00;97949.31;5053909;28;20607;-88
2021/04/15 01:24:03;;;;;;;4.30;3.97;;;;;;;5.80;100.00;97968.06;5019386;28;20204;-88
2021/04/15 01:26:45;;;;;;;4.33;3.93;;;;;;;5.48;100.00;97981.16;5053666;28;20182;-88
2021/04/15 01:29:20;;;;;;;4.67;4.27;;;;;;;5.42;100.00;97971.06;5053356;28;20756;-88
2021/04/15 01:31:58;;;;;;;3.83;3.53;;;;;;;5.08;100.00;97950.38;5053897;28;20565;-89
2021/04/15 01:34:35;;;;;;;12.50;9.03;;;;;;;5.16;100.00;97956.88;5053947;28;20616;-89
2021/04/15 01:37:06;;;;;;;8.03;6.67;;;;;;;5.17;100.00;97960.31;5053262;28;20273;-89
2021/04/15 01:39:39;;;;;;;5.80;5.13;;;;;;;5.23;100.00;97957.38;5053728;28;20567;-89
2021/04/15 01:42:13;;;;;;;5.93;4.37;;;;;;;5.19;100.00;97953.22;5053438;28;20190;-89
2021/04/15 01:44:46;;;;;;;4.53;3.50;;;;;;;5.05;100.00;97942.72;5053538;28;20190;-90
2021/04/15 01:47:17;;;;;;;7.77;5.60;;;;;;;5.10;100.00;97946.78;5053068;28;20193;-89
2021/04/15 01:49:49;;;;;;;4.30;3.97;;;;;;;5.19;100.00;97961.88;5053189;28;20300;-88
2021/04/15 01:52:18;;;;;;;4.43;4.13;;;;;;;5.09;100.00;97946.84;5053177;28;20183;-89
2021/04/15 01:54:52;;;;;;;4.67;4.27;;;;;;;5.25;100.00;97950.28;5053038;28;20289;-88
2021/04/15 01:57:25;;;;;;;5.63;5.23;;;;;;;5.12;100.00;97939.69;5053431;28;20190;-88
2021/04/15 02:00:00;;;;;;;4.40;4.10;;;;;;;5.27;100.00;97952.84;5053346;28;20268;-87
2021/04/15 02:02:31;;;;;;;4.73;4.33;;;;;;;5.32;100.00;97956.00;5052868;28;20232;-88
2021/04/15 02:05:02;;;;;;;4.63;4.27;;;;;;;5.14;100.00;97942.22;5052844;28;20327;-89
2021/04/15 02:07:33;;;;;;;4.00;3.70;;;;;;;5.11;100.00;97939.78;5057112;28;20197;-88
2021/04/15 02:10:01;;;;;;;4.00;3.70;;;;;;;5.14;100.00;97934.41;5052678;28;20210;-88
2021/04/15 02:12:30;;;;;;;4.63;4.33;;;;;;;5.02;100.00;97928.09;5052985;28;20204;-89
2021/04/15 02:15:02;;;;;;;4.30;4.00;;;;;;;5.08;100.00;97922.53;5052911;28;20689;-89
2021/04/15 02:17:32;;;;;;;4.50;4.00;;;;;;;5.13;100.00;97910.13;5052755;28;20273;-89
2021/04/15 02:20:02;;;;;;;4.70;4.40;;;;;;;5.12;100.00;97918.84;5052653;28;20406;-89
2021/04/15 02:22:34;;;;;;;4.87;4.50;;;;;;;5.27;100.00;97924.16;5052692;28;20198;-89
2021/04/15 02:25:08;;;;;;;4.67;4.27;;;;;;;5.35;100.00;97930.59;5053454;28;20182;-89
2021/04/15 02:27:41;;;;;;;4.63;4.23;;;;;;;5.18;100.00;97930.69;5052972;28;20273;-89
2021/04/15 02:30:17;;;;;;;4.63;4.23;;;;;;;5.06;100.00;97926.16;5052750;28;20335;-90
2021/04/15 02:32:47;;;;;;;4.70;4.30;;;;;;;5.00;100.00;97930.78;5052711;28;20190;-89
2021/04/15 02:35:22;;;;;;;5.07;4.60;;;;;;;5.12;100.00;97929.25;5052729;28;20205;-90
2021/04/15 02:37:54;;;;;;;4.43;4.03;;;;;;;5.05;100.00;97927.09;5052615;28;20289;-90
2021/04/15 02:40:26;;;;;;;4.60;4.20;;;;;;;5.00;100.00;97920.38;5052624;28;20192;-89
2021/04/15 02:42:55;;;;;;;4.67;4.27;;;;;;;5.15;100.00;97923.06;5055869;28;20268;-89
2021/04/15 02:45:30;;;;;;;4.63;4.23;;;;;;;5.20;100.00;97918.44;5056883;28;20200;-89
2021/04/15 02:48:03;;;;;;;4.73;4.33;;;;;;;5.18;100.00;97908.09;5056627;28;20255;-89
2021/04/15 02:50:32;;;;;;;4.33;3.97;;;;;;;5.17;100.00;97916.84;5056601;28;20182;-88
2021/04/15 02:53:08;;;;;;;3.90;3.60;;;;;;;5.08;100.00;97909.50;5056705;28;20232;-89
2021/04/15 02:55:41;;;;;;;6.20;4.00;;;;;;;4.92;100.00;97896.50;5056944;28;20257;-89
2021/04/15 02:58:11;;;;;;;4.13;3.83;;;;;;;4.85;100.00;97892.53;5056333;28;20221;-89
2021/04/15 03:00:41;;;;;;;3.90;3.60;;;;;;;4.77;100.00;97885.13;5056773;28;20265;-89
2021/04/15 03:03:11;;;;;;;4.93;4.00;;;;;;;4.89;100.00;97880.19;5056577;28;20284;-89
2021/04/15 03:05:41;;;;;;;4.03;3.70;;;;;;;4.59;100.00;97867.06;5056770;28;20348;-88
2021/04/15 03:08:10;;;;;;;4.57;4.23;;;;;;;4.85;100.00;97876.91;5056247;28;20178;-89
2021/04/15 03:10:41;;;;;;;3.70;3.43;;;;;;;4.86;100.00;97873.38;5056415;28;20616;-88
2021/04/15 03:13:11;;;;;;;3.70;3.37;;;;;;;4.73;100.00;97854.13;5055859;28;20186;-89
2021/04/15 03:15:44;;;;;;;4.03;3.83;;;;;;;4.57;100.00;97815.03;5056139;28;20186;-89
2021/04/15 03:18:17;;;;;;;4.30;3.63;;;;;;;4.79;100.00;97798.25;5056159;28;20237;-88
2021/04/15 03:20:49;;;;;;;4.70;4.30;;;;;;;4.86;100.00;97776.16;5055796;28;20304;-89
2021/04/15 03:23:28;;;;;;;5.03;4.63;;;;;;;4.64;100.00;97764.34;5055981;28;20271;-89
2021/04/15 03:25:59;;;;;;;4.63;4.27;;;;;;;4.70;100.00;97750.09;5056372;28;20700;-88
2021/04/15 03:28:34;;;;;;;4.10;3.80;;;;;;;4.70;100.00;97745.75;5074370;28;20217;-88
2021/04/15 03:31:06;;;;;;;4.07;3.70;;;;;;;4.63;100.00;97748.78;5075552;28;20183;-87
2021/04/15 03:33:40;;;;;;;5.33;3.60;;;;;;;4.59;100.00;97747.28;5075485;28;20634;-87
2021/04/15 03:36:15;;;;;;;4.80;4.40;;;;;;;4.42;100.00;97740.38;5075335;28;20188;-88
2021/04/15 03:38:50;;;;;;;7.20;6.60;;;;;;;4.49;100.00;97752.97;5075239;28;20187;-87
2021/04/15 03:41:21;;;;;;;8.80;6.60;;;;;;;4.64;100.00;97763.47;5055153;28;20272;-87
2021/04/15 03:43:57;;;;;;;19.03;15.10;;;;;;;4.77;100.00;97772.28;5055502;28;20194;-87
2021/04/15 03:46:34;;;;;;;7.93;7.20;;;;;;;4.68;100.00;97781.47;5054665;28;20277;-87
2021/04/15 03:49:05;;;;;;;7.77;7.07;;;;;;;4.66;100.00;97774.66;5054921;28;20202;-87
2021/04/15 03:51:39;;;;;;;98.07;58.97;;;;;;;4.70;100.00;97770.94;5055295;28;20232;-89
2021/04/15 03:54:09;;;;;;;17.33;14.47;;;;;;;4.80;100.00;97785.13;5055152;28;20190;-87
2021/04/15 03:56:39;;;;;;;7.90;6.87;;;;;;;4.77;100.00;97799.16;5055383;28;20190;-89
2021/04/15 03:59:12;;;;;;;5.30;4.80;;;;;;;4.53;100.00;97801.34;5070022;28;20178;-87
2021/04/15 04:01:44;;;;;;;3.93;3.63;;;;;;;4.58;100.00;97811.53;5063531;28;20205;-89
2021/04/15 04:04:24;;;;;;;5.20;3.90;;;;;;;4.76;100.00;97823.53;5055255;28;20209;-89
2021/04/15 04:06:53;;;;;;;4.70;4.30;;;;;;;4.71;100.00;97828.19;5055100;28;20193;-89
2021/04/15 04:09:24;;;;;;;5.20;4.80;;;;;;;4.68;100.00;97830.13;5055130;28;20261;-90
2021/04/15 04:11:53;;;;;;;5.70;4.80;;;;;;;4.73;100.00;97846.31;5054732;28;20174;-89
2021/04/15 04:14:25;;;;;;;22.63;15.77;;;;;;;4.93;100.00;97866.06;5054816;28;20200;-90
2021/04/15 04:17:01;;;;;;;60.43;37.13;;;;;;;4.94;100.00;97868.56;5054832;28;20189;-89
2021/04/15 04:19:35;;;;;;;40.40;27.07;;;;;;;4.80;100.00;97858.06;5054915;28;20667;-88
2021/04/15 04:22:11;;;;;;;21.40;15.23;;;;;;;4.83;100.00;97857.06;5054756;28;20270;-88
2021/04/15 04:24:44;;;;;;;21.70;14.33;;;;;;;4.82;100.00;97861.44;5054686;28;20186;-88
2021/04/15 04:27:18;;;;;;;21.10;13.67;;;;;;;4.91;100.00;97868.75;5054675;28;20913;-88
2021/04/15 04:29:51;;;;;;;6.87;6.20;;;;;;;4.78;100.00;97865.16;5052823;28;20206;-88
2021/04/15 04:32:22;;;;;;;17.20;14.50;;;;;;;4.96;100.00;97871.13;5054577;28;20194;-89
2021/04/15 04:34:53;;;;;;;21.83;15.83;;;;;;;5.03;100.00;97869.84;5054849;28;20417;-89
2021/04/15 04:37:21;;;;;;;9.43;8.40;;;;;;;5.04;100.00;97878.50;5054478;28;20217;-89
2021/04/15 04:39:51;;;;;;;8.47;7.03;;;;;;;5.14;100.00;97864.03;5055043;28;20721;-89
2021/04/15 04:42:33;;;;;;;7.67;6.97;;;;;;;5.02;100.00;97862.94;5055333;28;20190;-89
2021/04/15 04:45:01;;;;;;;7.93;7.13;;;;;;;4.92;100.00;97859.19;5054885;28;20251;-89
2021/04/15 04:47:39;;;;;;;13.13;10.83;;;;;;;4.96;100.00;97866.75;5054626;28;20276;-89
2021/04/15 04:50:12;;;;;;;7.23;6.43;;;;;;;5.06;100.00;97877.50;5054544;28;20245;-89
2021/04/15 04:52:40;;;;;;;5.00;4.60;;;;;;;5.07;100.00;97888.75;5054975;28;20598;-89
2021/04/15 04:55:13;;;;;;;5.30;4.80;;;;;;;5.05;100.00;97901.84;5054510;28;20202;-89
2021/04/15 04:57:43;;;;;;;5.63;5.13;;;;;;;5.10;100.00;97909.44;5054266;28;20198;-89
2021/04/15 05:00:12;;;;;;;5.40;4.90;;;;;;;5.17;100.00;97911.63;5054442;28;20248;-90
2021/04/15 05:02:40;;;;;;;6.77;6.10;;;;;;;5.30;100.00;97910.94;5054144;28;20204;-89
2021/04/15 05:05:13;;;;;;;6.23;5.70;;;;;;;5.32;100.00;97906.47;5053461;28;20209;-89
2021/04/15 05:07:42;;;;;;;6.60;6.00;;;;;;;5.30;100.00;97890.06;5054075;28;20194;-89
2021/04/15 05:10:14;;;;;;;5.97;5.43;;;;;;;5.33;100.00;97862.06;5053759;28;20221;-89
2021/04/15 05:12:42;;;;;;;6.70;6.07;;;;;;;5.41;100.00;97833.81;5053879;28;20265;-89
2021/04/15 05:15:11;;;;;;;8.13;7.27;;;;;;;5.60;100.00;97822.28;5053933;28;20248;-89
2021/04/15 05:17:41;;;;;;;6.90;6.23;;;;;;;5.43;100.00;97795.41;5053789;28;20684;-90
2021/04/15 05:20:12;;;;;;;6.33;5.03;;;;;;;5.29;100.00;97766.69;5066237;28;20709;-90
2021/04/15 05:22:43;;;;;;;6.53;5.93;;;;;;;5.15;100.00;97738.84;5073862;28;20269;-90
2021/04/15 05:25:15;;;;;;;10.40;9.30;;;;;;;5.52;100.00;97725.41;5073848;28;20212;-89
2021/04/15 05:27:43;;;;;;;9.90;8.53;;;;;;;5.62;100.00;97703.06;5073557;28;20231;-89
2021/04/15 05:30:29;;;;;;;6.83;6.17;;;;;;;5.52;100.00;97684.53;5073288;28;20312;-89
2021/04/15 05:33:00;;;;;;;7.63;6.83;;;;;;;5.79;100.00;97662.91;5073815;28;20185;-90
2021/04/15 05:35:32;;;;;;;9.37;8.07;;;;;;;5.98;100.00;97641.75;5073466;28;20189;-90
2021/04/15 05:37:59;;;;;;;8.40;6.43;;;;;;;5.80;100.00;97631.50;5073620;28;20189;-90
2021/04/15 05:40:26;;;;;;;11.70;7.17;;;;;;;5.83;100.00;97613.03;5073188;28;20284;-89
2021/04/15 05:43:07;;;;;;;6.67;5.87;;;;;;;5.84;100.00;97588.63;5073127;28;20284;-89
2021/04/15 05:45:36;;;;;;;5.43;4.93;;;;;;;6.02;100.00;97576.19;5073267;28;20196;-89
2021/04/15 05:48:07;;;;;;;6.67;5.97;;;;;;;6.24;100.00;97553.97;5073352;28;20220;-90
2021/04/15 05:50:39;;;;;;;46.07;28.07;;;;;;;6.33;100.00;97538.50;5073129;28;20704;-89
2021/04/15 05:53:12;;;;;;;29.97;16.03;;;;;;;6.35;100.00;97526.19;5073167;28;20181;-90
2021/04/15 05:55:43;;;;;;;12.37;7.57;;;;;;;6.33;100.00;97501.94;5073058;28;20745;-90
2021/04/15 05:58:16;;;;;;;12.30;10.83;;;;;;;6.37;100.00;97468.63;5073092;28;20193;-89
2021/04/15 06:00:46;;;;;;;4.87;4.47;;;;;;;6.42;100.00;97435.22;5073273;28;20188;-91
2021/04/15 06:03:22;;;;;;;22.70;20.60;;;;;;;6.76;100.00;97402.41;5072907;28;20181;-90
2021/04/15 06:05:55;;;;;;;6.27;5.77;;;;;;;6.64;100.00;97364.06;5073182;28;20693;-90
2021/04/15 06:08:23;;;;;;;6.23;5.63;;;;;;;6.89;100.00;97332.66;5072872;28;20788;-90
2021/04/15 06:10:55;;;;;;;7.07;5.27;;;;;;;7.12;100.00;97320.53;5073024;28;20236;-90
2021/04/15 06:13:31;;;;;;;3.83;3.47;;;;;;;6.86;100.00;97298.91;5072912;28;20701;-92
2021/04/15 06:16:03;;;;;;;12.87;9.43;;;;;;;7.15;100.00;97277.63;5072441;28;20200;-90
2021/04/15 06:18:36;;;;;;;12.27;8.20;;;;;;;6.96;100.00;97264.22;5073518;28;20251;-89
2021/04/15 06:21:08;;;;;;;4.20;3.80;;;;;;;6.83;100.00;97248.63;5072815;28;20182;-90
2021/04/15 06:23:42;;;;;;;3.03;2.77;;;;;;;7.15;100.00;97236.63;5072838;28;20190;-89
2021/04/15 06:26:19;;;;;;;3.73;3.43;;;;;;;7.20;100.00;97219.78;5072996;28;20236;-90
2021/04/15 06:28:49;;;;;;;4.00;3.70;;;;;;;6.89;100.00;97207.22;5072168;28;20200;-90
2021/04/15 06:31:22;;;;;;;4.17;2.90;;;;;;;6.74;100.00;97192.63;5072647;28;20204;-90
2021/04/15 06:33:53;;;;;;;5.17;4.67;;;;;;;6.98;100.00;97173.50;5073021;28;20611;-90
2021/04/15 06:36:30;;;;;;;5.10;4.57;;;;;;;7.12;100.00;97163.66;5072748;28;20186;-91
2021/04/15 06:39:06;;;;;;;4.30;3.90;;;;;;;7.32;100.00;97166.56;5072646;28;20277;-90
2021/04/15 06:42:25;;;;;;;2.90;2.70;;;;;;;7.38;100.00;97155.66;5072638;28;20181;-90
2021/04/15 06:45:19;;;;;;;2.93;2.73;;;;;;;7.38;100.00;97151.25;4991746;28;20239;-89
2021/04/15 06:48:13;;;;;;;2.33;2.17;;;;;;;7.28;100.00;97145.03;4991643;28;20189;-90
2021/04/15 06:50:53;;;;;;;2.33;2.10;;;;;;;7.65;100.00;97144.00;4991542;28;20732;-90
2021/04/15 06:53:33;;;;;;;4.67;2.77;;;;;;;7.88;100.00;97136.97;4991580;28;20184;-90
2021/04/15 06:56:10;;;;;;;3.93;3.57;;;;;;;7.80;100.00;97127.94;4991576;28;20550;-91
2021/04/15 06:58:58;;;;;;;3.30;2.73;;;;;;;7.89;100.00;97126.38;4991589;28;20271;-90
2021/04/15 07:01:36;;;;;;;2.80;2.60;;;;;;;7.89;100.00;97123.75;4991538;28;20239;-91
2021/04/15 07:04:13;;;;;;;3.40;3.13;;;;;;;8.12;100.00;97124.56;4991717;28;20215;-91
2021/04/15 07:06:47;;;;;;;2.40;2.20;;;;;;;7.74;100.00;97125.81;4991596;28;20275;-91
2021/04/15 07:09:34;;;;;;;4.10;3.70;;;;;;;8.20;100.00;97132.63;4991830;28;20354;-90
2021/04/15 07:12:18;;;;;;;2.00;1.90;;;;;;;7.91;100.00;97119.25;4991770;28;20316;-89
2021/04/15 07:15:01;;;;;;;6.27;4.10;;;;;;;8.00;100.00;97110.66;5000091;28;20181;-90
2021/04/15 07:17:51;;;;;;;3.53;3.23;;;;;;;8.21;100.00;97112.50;5072407;28;20200;-90
2021/04/15 07:20:53;;;;;;;8.53;6.33;;;;;;;8.30;100.00;97106.53;5072204;28;20278;-91
2021/04/15 07:24:10;;;;;;;7.57;6.07;;;;;;;8.24;100.00;97112.25;5065661;28;20809;-91
2021/04/15 07:27:07;;;;;;;5.17;4.47;;;;;;;8.26;100.00;97110.38;4998281;28;20196;-90
2021/04/15 07:30:08;;;;;;;35.90;26.03;;;;;;;8.36;100.00;97106.06;5075799;28;20326;-90
2021/04/15 07:33:23;;;;;;;4.03;2.47;;;;;;;8.60;100.00;97095.38;5052516;28;20287;-90
2021/04/15 07:36:17;;;;;;;2.40;2.20;;;;;;;8.73;100.00;97088.19;4975422;28;20385;-90
2021/04/15 07:39:20;;;;;;;2.70;2.50;;;;;;;9.06;100.00;97094.19;5071460;28;20232;-90
2021/04/15 07:42:30;;;;;;;1.87;1.77;;;;;;;9.18;100.00;97082.66;5053102;28;20673;-90
2021/04/15 07:45:01;;;;;;;2.47;2.27;;;;;;;9.36;100.00;97076.81;5075621;28;20221;-89
2021/04/15 07:47:51;;;;;;;2.00;1.80;;;;;;;10.00;100.00;97071.22;5075697;28;20182;-90
2021/04/15 07:51:06;;;;;;;3.70;2.90;;;;;;;11.27;100.00;97064.13;5058437;28;20263;-91
2021/04/15 07:54:05;;;;;;;1.97;1.87;;;;;;;10.88;100.00;97058.97;5075439;28;20204;-90
2021/04/15 07:57:19;;;;;;;1.60;1.50;;;;;;;11.82;100.00;97043.94;5075311;28;20254;-90
2021/04/15 08:00:04;;;;;;;9.77;8.87;;;;;;;12.27;100.00;97039.66;5062204;28;20200;-91
2021/04/15 08:03:09;;;;;;;2.50;2.17;;;;;;;11.43;100.00;97032.78;5075573;28;20193;-89
2021/04/15 08:05:51;;;;;;;2.07;1.93;;;;;;;12.14;100.00;97022.41;4994458;28;20203;-91
2021/04/15 08:09:05;;;;;;;2.33;2.17;;;;;;;12.17;100.00;97033.63;4994259;28;20192;-90
2021/04/15 08:11:44;;;;;;;1.93;1.83;;;;;;;12.82;100.00;97021.00;4989338;28;20251;-89
2021/04/15 08:14:46;;;;;;;3.17;2.97;;;;;;;13.58;100.00;97017.69;4994331;28;20193;-90
2021/04/15 08:17:35;;;;;;;3.03;2.83;;;;;;;14.03;100.00;96996.19;4987532;28;20300;-91
2021/04/15 08:20:31;;;;;;;2.30;2.10;;;;;;;14.75;100.00;96990.28;4993774;28;20241;-91
2021/04/15 08:23:16;;;;;;;1.70;1.60;;;;;;;13.36;100.00;96986.53;4991571;28;20200;-91
2021/04/15 08:26:01;;;;;;;2.20;2.00;;;;;;;12.68;100.00;97001.28;4994404;28;20759;-91
2021/04/15 08:28:42;;;;;;;2.57;2.17;;;;;;;12.74;100.00;97027.03;4993807;28;20629;-90
2021/04/15 08:31:17;;;;;;;2.37;2.17;;;;;;;13.46;100.00;97030.31;4994191;28;20235;-90
2021/04/15 08:34:08;;;;;;;4.00;3.60;;;;;;;12.30;100.00;97036.72;4993933;28;20192;-89
2021/04/15 08:36:44;;;;;;;3.97;3.67;;;;;;;11.74;100.00;97029.84;5038665;28;20305;-91
2021/04/15 08:39:33;;;;;;;3.07;2.87;;;;;;;11.71;100.00;97027.50;5073892;28;20230;-90
2021/04/15 08:42:15;;;;;;;2.53;2.33;;;;;;;11.16;100.00;97029.13;5065382;28;20197;-91
2021/04/15 08:45:01;;;;;;;3.73;2.27;;;;;;;10.99;100.00;97023.78;5074581;28;20196;-91
2021/04/15 08:47:52;;;;;;;2.87;2.67;;;;;;;10.65;100.00;97032.97;5074378;28;20185;-90
2021/04/15 08:50:29;;;;;;;2.73;2.50;;;;;;;11.50;100.00;97039.13;5074569;28;20663;-92
2021/04/15 08:53:04;;;;;;;3.43;3.20;;;;;;;12.20;100.00;97038.63;5074344;28;20665;-89
2021/04/15 08:55:39;;;;;;;3.80;3.50;;;;;;;13.02;100.00;97029.53;5074187;28;20229;-90
2021/04/15 08:58:33;;;;;;;6.53;3.43;;;;;;;13.33;100.00;97019.34;5074485;28;20659;-91
2021/04/15 09:01:09;;;;;;;3.87;3.47;;;;;;;12.89;100.00;97024.69;5074247;28;20267;-90
2021/04/15 09:03:42;;;;;;;4.20;3.57;;;;;;;12.46;100.00;97012.31;5074049;28;20272;-91
2021/04/15 09:06:21;;;;;;;5.10;4.60;;;;;;;12.52;100.00;97009.06;5073995;28;20196;-90
2021/04/15 09:09:15;;;;;;;3.53;3.00;;;;;;;11.84;100.00;97005.13;5073971;28;20223;-90
2021/04/15 09:11:55;;;;;;;3.70;3.40;;;;;;;12.05;100.00;96996.97;5073833;28;20192;-90
2021/04/15 09:14:35;;;;;;;5.40;4.50;;;;;;;13.17;100.00;96990.22;5074145;28;20323;-91
2021/04/15 09:17:05;;;;;;;2.30;2.10;;;;;;;12.88;100.00;96957.06;5073802;28;20195;-91
2021/04/15 09:19:50;;;;;;;4.23;3.20;;;;;;;12.52;100.00;96940.50;5073819;28;20226;-90
2021/04/15 09:22:55;;;;;;;3.13;2.90;;;;;;;12.87;100.00;96952.78;5070751;28;20284;-90
2021/04/15 09:25:34;;;;;;;3.30;3.00;;;;;;;12.44;100.00;96996.66;5073921;28;20231;-90
2021/04/15 09:28:07;;;;;;;7.03;6.17;;;;;;;11.82;100.00;97008.88;5073756;28;20185;-90
2021/04/15 09:30:53;;;;;;;3.80;2.63;;;;;;;11.29;100.00;96997.25;5073498;28;20719;-90
2021/04/15 09:33:44;;;;;;;5.23;3.57;;;;;;;11.16;100.00;97005.44;5073478;28;20185;-91
2021/04/15 09:36:21;;;;;;;3.00;2.70;;;;;;;10.59;100.00;97020.38;5073533;28;20661;-90
2021/04/15 09:39:22;;;;;;;3.27;2.97;;;;;;;11.08;100.00;97007.13;5073696;28;20284;-90
2021/04/15 09:42:28;;;;;;;2.80;2.60;;;;;;;11.34;100.00;97012.59;5073389;28;20224;-90
2021/04/15 09:45:35;;;;;;;3.63;3.00;;;;;;;11.31;100.00;97002.34;5061753;28;20196;-89
2021/04/15 09:48:17;;;;;;;2.50;2.30;;;;;;;10.70;100.00;96998.34;5063021;28;20715;-90
2021/04/15 09:50:51;;;;;;;4.57;4.17;;;;;;;11.01;100.00;96993.72;5073503;28;20563;-89
2021/04/15 09:53:41;;;;;;;3.10;2.90;;;;;;;11.16;100.00;96989.66;5073723;28;20276;-89
2021/04/15 09:56:23;;;;;;;5.97;4.27;;;;;;;11.41;100.00;96987.34;5070023;28;20193;-90
2021/04/15 09:58:58;;;;;;;2.70;2.50;;;;;;;11.14;100.00;96981.06;5073533;28;20181;-90
2021/04/15 10:01:30;;;;;;;10.33;5.47;;;;;;;10.99;100.00;96982.53;5073033;28;20224;-91
2021/04/15 10:04:02;;;;;;;2.43;1.73;;;;;;;10.84;100.00;96978.69;5072967;28;20221;-90
2021/04/15 10:06:31;;;;;;;1.80;1.70;;;;;;;10.99;100.00;96976.44;5073106;28;20203;-90
2021/04/15 10:09:17;;;;;;;5.77;2.30;;;;;;;11.05;100.00;96960.91;5073064;28;20223;-91
2021/04/15 10:12:28;;;;;;;2.90;2.70;;;;;;;11.09;100.00;96957.00;5072882;28;20182;-90
2021/04/15 10:15:12;;;;;;;3.37;2.67;;;;;;;11.02;100.00;96949.84;5073072;28;20193;-90
2021/04/15 10:18:11;;;;;;;3.20;2.10;;;;;;;11.36;100.00;96950.09;5072973;28;20221;-91
2021/04/15 10:20:53;;;;;;;1.87;1.73;;;;;;;11.35;100.00;96941.38;5067556;28;20283;-90
2021/04/15 10:23:47;;;;;;;4.03;3.00;;;;;;;12.02;100.00;96939.31;5072809;28;20233;-90
2021/04/15 10:26:29;;;;;;;2.40;2.20;;;;;;;12.93;100.00;96935.50;5069731;28;20204;-90
2021/04/15 10:29:25;;;;;;;1.90;1.70;;;;;;;12.48;100.00;96928.63;5072619;28;20231;-91
2021/04/15 10:32:16;;;;;;;1.93;1.80;;;;;;;12.46;100.00;96927.94;5071134;28;20588;-89
2021/04/15 10:35:25;;;;;;;4.73;4.33;;;;;;;12.13;100.00;96931.16;5072591;28;20207;-90
2021/04/15 10:38:27;;;;;;;5.73;4.47;;;;;;;11.91;100.00;96934.25;5045973;28;20238;-90
2021/04/15 10:40:56;;;;;;;2.67;2.17;;;;;;;11.70;100.00;96923.16;5072643;28;20652;-90
2021/04/15 10:44:07;;;;;;;5.60;5.10;;;;;;;11.94;100.00;96918.13;5072621;28;20289;-91
2021/04/15 10:46:48;;;;;;;3.13;2.83;;;;;;;12.13;100.00;96906.63;5066524;28;20590;-91
2021/04/15 10:49:34;;;;;;;2.60;2.40;;;;;;;11.70;100.00;96905.53;5072618;28;20700;-90
2021/04/15 10:52:06;;;;;;;2.37;1.77;;;;;;;11.50;100.00;96906.66;5072779;28;20622;-89
2021/04/15 10:54:35;;;;;;;3.07;2.87;;;;;;;11.57;100.00;96900.66;5072445;28;20326;-89
2021/04/15 10:57:14;;;;;;;2.50;2.30;;;;;;;11.61;100.00;96893.28;5072408;28;20238;-90
2021/04/15 10:59:43;;;;;;;2.30;2.17;;;;;;;11.66;100.00;96894.47;5072454;28;20195;-90
2021/04/15 11:02:31;;;;;;;2.60;2.40;;;;;;;11.73;100.00;96888.63;5072602;28;20280;-89
2021/04/15 11:05:17;;;;;;;2.00;1.90;;;;;;;11.28;100.00;96892.09;5076653;28;20659;-90
2021/04/15 11:07:46;;;;;;;3.43;3.13;;;;;;;11.33;100.00;96889.88;5076488;28;20568;-89
2021/04/15 11:10:22;;;;;;;3.13;2.50;;;;;;;11.11;100.00;96884.03;5076278;28;20303;-89
2021/04/15 11:12:49;;;;;;;5.33;4.30;;;;;;;11.08;100.00;96886.13;5076675;28;20185;-90
2021/04/15 11:15:22;;;;;;;2.43;2.20;;;;;;;11.21;100.00;96889.22;5076554;28;20197;-90
2021/04/15 11:17:54;;;;;;;2.50;1.87;;;;;;;10.91;100.00;96892.97;5076014;28;20189;-90
2021/04/15 11:20:30;;;;;;;2.40;2.30;;;;;;;11.04;100.00;96895.28;5075829;28;20728;-90
2021/04/15 11:23:06;;;;;;;3.23;2.93;;;;;;;11.24;100.00;96898.66;5076086;28;20228;-89
2021/04/15 11:25:40;;;;;;;2.57;2.37;;;;;;;11.51;100.00;96890.72;5075921;28;20224;-89
2021/04/15 11:28:30;;;;;;;3.13;2.73;;;;;;;11.75;100.00;96899.84;5075783;28;20230;-89
2021/04/15 11:30:59;;;;;;;3.03;2.83;;;;;;;11.91;100.00;96900.00;5075976;28;20209;-89
2021/04/15 11:33:36;;;;;;;4.53;3.40;;;;;;;11.43;100.00;96904.63;5075798;28;20223;-90
2021/04/15 11:36:11;;;;;;;2.47;2.27;;;;;;;11.35;100.00;96906.31;5075815;28;20188;-90
2021/04/15 11:38:39;;;;;;;2.60;2.40;;;;;;;11.41;100.00;96905.75;5076094;28;20268;-89
2021/04/15 11:41:15;;;;;;;2.87;2.23;;;;;;;11.40;100.00;96904.91;5075655;28;20225;-90
2021/04/15 11:43:42;;;;;;;5.03;4.40;;;;;;;11.41;100.00;96903.13;5075636;28;20283;-90
2021/04/15 11:46:19;;;;;;;9.83;7.93;;;;;;;11.57;100.00;96899.81;5075769;28;20585;-90
2021/04/15 11:49:04;;;;;;;9.40;8.50;;;;;;;11.31;100.00;96902.34;5075838;28;20266;-90
2021/04/15 11:51:36;;;;;;;8.03;7.23;;;;;;;11.49;100.00;96899.72;5075454;28;20264;-89
2021/04/15 11:54:03;;;;;;;8.20;7.13;;;;;;;11.28;100.00;96889.47;5075402;28;20669;-90
2021/04/15 11:56:34;;;;;;;6.80;6.10;;;;;;;11.01;100.00;96890.31;5075402;28;20743;-90
2021/04/15 11:59:23;;;;;;;10.37;9.27;;;;;;;11.09;100.00;96878.09;5075950;28;20215;-90
2021/04/15 12:01:51;;;;;;;6.67;5.90;;;;;;;11.37;100.00;96883.34;5075199;28;20190;-89
2021/04/15 12:04:25;;;;;;;6.77;5.00;;;;;;;11.42;100.00;96897.69;5075459;28;20243;-89
2021/04/15 12:06:58;;;;;;;5.23;4.67;;;;;;;11.72;100.00;96889.59;5075369;28;20276;-89
2021/04/15 12:09:31;;;;;;;3.97;3.67;;;;;;;11.77;100.00;96867.09;5075236;28;20213;-90
2021/04/15 12:12:06;;;;;;;5.47;4.40;;;;;;;12.75;100.00;96862.53;5075327;28;20194;-91
2021/04/15 12:14:35;;;;;;;4.67;4.00;;;;;;;12.88;100.00;96848.88;5073902;28;20200;-91
2021/04/15 12:17:07;;;;;;;6.40;3.17;;;;;;;13.43;100.00;96822.03;5075334;28;20231;-90